sensor_id;sensor_type;location;lat;lon;timestamp;temperature;humidity
66962;HTU21D;53897;51.126;5.868;2022-08-26T00:01:24;28.28;52.00
66962;HTU21D;53897;51.126;5.868;2022-08-26T00:03:50;28.25;52.03
66962;HTU21D;53897;51.126;5.868;2022-08-26T00:06:16;28.26;52.07
66962;HTU21D;53897;51.126;5.868;2022-08-26T00:08:42;28.24;52.14
66962;HTU21D;53897;51.126;5.868;2022-08-26T00:11:09;28.21;52.19
66962;HTU21D;53897;51.126;5.868;2022-08-26T00:13:36;28.20;52.23
66962;HTU21D;53897;51.126;5.868;2022-08-26T00:16:04;28.20;52.27
66962;HTU21D;53897;51.126;5.868;2022-08-26T00:18:30;28.20;52.31
66962;HTU21D;53897;51.126;5.868;2022-08-26T00:20:56;28.18;52.33
66962;HTU21D;53897;51.126;5.868;2022-08-26T00:23:22;28.16;52.40
66962;HTU21D;53897;51.126;5.868;2022-08-26T00:25:48;28.16;52.42
66962;HTU21D;53897;51.126;5.868;2022-08-26T00:28:14;28.14;52.46
66962;HTU21D;53897;51.126;5.868;2022-08-26T00:30:40;28.14;52.48
66962;HTU21D;53897;51.126;5.868;2022-08-26T00:33:06;28.13;52.52
66962;HTU21D;53897;51.126;5.868;2022-08-26T00:35:33;28.13;52.56
66962;HTU21D;53897;51.126;5.868;2022-08-26T00:38:00;28.11;52.59
66962;HTU21D;53897;51.126;5.868;2022-08-26T00:40:36;28.11;52.63
66962;HTU21D;53897;51.126;5.868;2022-08-26T00:43:04;28.11;52.67
66962;HTU21D;53897;51.126;5.868;2022-08-26T00:45:58;28.09;52.72
66962;HTU21D;53897;51.126;5.868;2022-08-26T00:48:29;28.09;52.77
66962;HTU21D;53897;51.126;5.868;2022-08-26T00:51:00;28.08;52.81
66962;HTU21D;53897;51.126;5.868;2022-08-26T00:53:31;28.05;52.85
66962;HTU21D;53897;51.126;5.868;2022-08-26T00:56:50;28.04;52.90
66962;HTU21D;53897;51.126;5.868;2022-08-26T00:59:01;28.04;52.94
66962;HTU21D;53897;51.126;5.868;2022-08-26T01:01:27;28.02;52.98
66962;HTU21D;53897;51.126;5.868;2022-08-26T01:03:54;28.02;53.01
66962;HTU21D;53897;51.126;5.868;2022-08-26T01:06:22;28.01;53.04
66962;HTU21D;53897;51.126;5.868;2022-08-26T01:08:49;27.99;53.05
66962;HTU21D;53897;51.126;5.868;2022-08-26T01:11:18;27.99;53.07
66962;HTU21D;53897;51.126;5.868;2022-08-26T01:13:44;27.98;53.10
66962;HTU21D;53897;51.126;5.868;2022-08-26T01:16:14;27.98;53.13
66962;HTU21D;53897;51.126;5.868;2022-08-26T01:18:43;27.97;53.14
66962;HTU21D;53897;51.126;5.868;2022-08-26T01:21:26;27.96;53.12
66962;HTU21D;53897;51.126;5.868;2022-08-26T01:23:54;27.97;53.14
66962;HTU21D;53897;51.126;5.868;2022-08-26T01:26:25;27.95;53.17
66962;HTU21D;53897;51.126;5.868;2022-08-26T01:28:56;27.94;53.20
66962;HTU21D;53897;51.126;5.868;2022-08-26T01:31:28;27.93;53.23
66962;HTU21D;53897;51.126;5.868;2022-08-26T01:36:40;27.91;53.22
66962;HTU21D;53897;51.126;5.868;2022-08-26T01:39:07;27.90;53.20
66962;HTU21D;53897;51.126;5.868;2022-08-26T01:41:34;27.90;53.21
66962;HTU21D;53897;51.126;5.868;2022-08-26T01:44:02;27.90;53.19
66962;HTU21D;53897;51.126;5.868;2022-08-26T01:46:30;27.89;53.22
66962;HTU21D;53897;51.126;5.868;2022-08-26T01:49:00;27.87;53.25
66962;HTU21D;53897;51.126;5.868;2022-08-26T01:51:29;27.87;53.24
66962;HTU21D;53897;51.126;5.868;2022-08-26T01:53:56;27.85;53.23
66962;HTU21D;53897;51.126;5.868;2022-08-26T01:56:23;27.85;53.24
66962;HTU21D;53897;51.126;5.868;2022-08-26T01:58:53;27.85;53.23
66962;HTU21D;53897;51.126;5.868;2022-08-26T02:01:23;27.84;53.23
66962;HTU21D;53897;51.126;5.868;2022-08-26T02:06:17;27.82;53.19
66962;HTU21D;53897;51.126;5.868;2022-08-26T02:08:48;27.82;53.17
66962;HTU21D;53897;51.126;5.868;2022-08-26T02:11:15;27.81;53.18
66962;HTU21D;53897;51.126;5.868;2022-08-26T02:13:51;27.80;53.16
66962;HTU21D;53897;51.126;5.868;2022-08-26T02:16:21;27.79;53.14
66962;HTU21D;53897;51.126;5.868;2022-08-26T02:18:49;27.79;53.13
66962;HTU21D;53897;51.126;5.868;2022-08-26T02:21:15;27.78;53.11
66962;HTU21D;53897;51.126;5.868;2022-08-26T02:23:42;27.76;53.11
66962;HTU21D;53897;51.126;5.868;2022-08-26T02:26:20;27.75;53.07
66962;HTU21D;53897;51.126;5.868;2022-08-26T02:28:57;27.74;53.06
66962;HTU21D;53897;51.126;5.868;2022-08-26T02:31:24;27.74;53.05
66962;HTU21D;53897;51.126;5.868;2022-08-26T02:33:50;27.73;53.03
66962;HTU21D;53897;51.126;5.868;2022-08-26T02:36:24;27.72;53.03
66962;HTU21D;53897;51.126;5.868;2022-08-26T02:38:50;27.71;53.04
66962;HTU21D;53897;51.126;5.868;2022-08-26T02:41:16;27.72;53.05
66962;HTU21D;53897;51.126;5.868;2022-08-26T02:43:42;27.70;53.05
66962;HTU21D;53897;51.126;5.868;2022-08-26T02:46:08;27.69;53.04
66962;HTU21D;53897;51.126;5.868;2022-08-26T02:48:34;27.68;53.04
66962;HTU21D;53897;51.126;5.868;2022-08-26T02:51:00;27.68;53.03
66962;HTU21D;53897;51.126;5.868;2022-08-26T02:53:27;27.67;53.01
66962;HTU21D;53897;51.126;5.868;2022-08-26T02:55:53;27.66;52.98
66962;HTU21D;53897;51.126;5.868;2022-08-26T02:58:19;27.66;52.98
66962;HTU21D;53897;51.126;5.868;2022-08-26T03:00:45;27.65;52.97
66962;HTU21D;53897;51.126;5.868;2022-08-26T03:03:13;27.65;52.97
66962;HTU21D;53897;51.126;5.868;2022-08-26T03:05:40;27.64;52.98
66962;HTU21D;53897;51.126;5.868;2022-08-26T03:08:06;27.64;52.96
66962;HTU21D;53897;51.126;5.868;2022-08-26T03:10:37;27.61;52.93
66962;HTU21D;53897;51.126;5.868;2022-08-26T03:13:03;27.61;52.93
66962;HTU21D;53897;51.126;5.868;2022-08-26T03:15:29;27.60;52.92
66962;HTU21D;53897;51.126;5.868;2022-08-26T03:17:56;27.61;52.89
66962;HTU21D;53897;51.126;5.868;2022-08-26T03:20:22;27.60;52.89
66962;HTU21D;53897;51.126;5.868;2022-08-26T03:22:48;27.59;52.88
66962;HTU21D;53897;51.126;5.868;2022-08-26T03:25:19;27.59;52.88
66962;HTU21D;53897;51.126;5.868;2022-08-26T03:27:46;27.58;52.86
66962;HTU21D;53897;51.126;5.868;2022-08-26T03:30:14;27.57;52.85
66962;HTU21D;53897;51.126;5.868;2022-08-26T03:32:58;27.57;52.85
66962;HTU21D;53897;51.126;5.868;2022-08-26T03:35:24;27.56;52.85
66962;HTU21D;53897;51.126;5.868;2022-08-26T03:37:50;27.56;52.86
66962;HTU21D;53897;51.126;5.868;2022-08-26T03:40:18;27.55;52.88
66962;HTU21D;53897;51.126;5.868;2022-08-26T03:42:44;27.55;52.86
66962;HTU21D;53897;51.126;5.868;2022-08-26T03:45:11;27.54;52.83
66962;HTU21D;53897;51.126;5.868;2022-08-26T03:47:38;27.53;52.85
66962;HTU21D;53897;51.126;5.868;2022-08-26T03:50:06;27.52;52.88
66962;HTU21D;53897;51.126;5.868;2022-08-26T03:52:32;27.52;52.89
66962;HTU21D;53897;51.126;5.868;2022-08-26T03:54:58;27.52;52.91
66962;HTU21D;53897;51.126;5.868;2022-08-26T03:57:24;27.50;52.92
66962;HTU21D;53897;51.126;5.868;2022-08-26T03:59:49;27.51;52.94
66962;HTU21D;53897;51.126;5.868;2022-08-26T04:02:15;27.49;52.95
66962;HTU21D;53897;51.126;5.868;2022-08-26T04:04:41;27.51;52.93
66962;HTU21D;53897;51.126;5.868;2022-08-26T04:07:07;27.49;52.96
66962;HTU21D;53897;51.126;5.868;2022-08-26T04:09:33;27.49;52.98
66962;HTU21D;53897;51.126;5.868;2022-08-26T04:11:59;27.49;53.01
66962;HTU21D;53897;51.126;5.868;2022-08-26T04:14:26;27.46;53.08
66962;HTU21D;53897;51.126;5.868;2022-08-26T04:16:54;27.46;53.12
66962;HTU21D;53897;51.126;5.868;2022-08-26T04:19:22;27.47;53.18
66962;HTU21D;53897;51.126;5.868;2022-08-26T04:21:50;27.46;53.22
66962;HTU21D;53897;51.126;5.868;2022-08-26T04:24:22;27.45;53.28
66962;HTU21D;53897;51.126;5.868;2022-08-26T04:26:48;27.45;53.35
66962;HTU21D;53897;51.126;5.868;2022-08-26T04:29:18;27.46;53.40
66962;HTU21D;53897;51.126;5.868;2022-08-26T04:31:45;27.46;53.46
66962;HTU21D;53897;51.126;5.868;2022-08-26T04:34:12;27.46;53.49
66962;HTU21D;53897;51.126;5.868;2022-08-26T04:36:38;27.45;53.53
66962;HTU21D;53897;51.126;5.868;2022-08-26T04:39:05;27.46;53.57
66962;HTU21D;53897;51.126;5.868;2022-08-26T04:41:32;27.45;53.70
66962;HTU21D;53897;51.126;5.868;2022-08-26T04:43:57;27.44;53.80
66962;HTU21D;53897;51.126;5.868;2022-08-26T04:46:24;27.43;53.91
66962;HTU21D;53897;51.126;5.868;2022-08-26T04:48:52;27.41;54.00
66962;HTU21D;53897;51.126;5.868;2022-08-26T04:51:19;27.39;54.06
66962;HTU21D;53897;51.126;5.868;2022-08-26T04:53:52;27.37;54.13
66962;HTU21D;53897;51.126;5.868;2022-08-26T04:56:25;27.37;54.20
66962;HTU21D;53897;51.126;5.868;2022-08-26T04:58:51;27.35;54.23
66962;HTU21D;53897;51.126;5.868;2022-08-26T05:01:17;27.32;54.33
66962;HTU21D;53897;51.126;5.868;2022-08-26T05:03:43;27.32;54.40
66962;HTU21D;53897;51.126;5.868;2022-08-26T05:06:09;27.32;54.41
66962;HTU21D;53897;51.126;5.868;2022-08-26T05:08:36;27.32;54.40
66962;HTU21D;53897;51.126;5.868;2022-08-26T05:11:04;27.32;54.42
66962;HTU21D;53897;51.126;5.868;2022-08-26T05:13:31;27.30;54.46
66962;HTU21D;53897;51.126;5.868;2022-08-26T05:16:02;27.30;54.59
66962;HTU21D;53897;51.126;5.868;2022-08-26T05:18:29;27.30;54.65
66962;HTU21D;53897;51.126;5.868;2022-08-26T05:20:56;27.29;54.69
66962;HTU21D;53897;51.126;5.868;2022-08-26T05:23:23;27.30;54.70
66962;HTU21D;53897;51.126;5.868;2022-08-26T05:25:52;27.29;54.69
66962;HTU21D;53897;51.126;5.868;2022-08-26T05:28:19;27.29;54.66
66962;HTU21D;53897;51.126;5.868;2022-08-26T05:30:45;27.28;54.60
66962;HTU21D;53897;51.126;5.868;2022-08-26T05:33:11;27.30;54.55
66962;HTU21D;53897;51.126;5.868;2022-08-26T05:35:37;27.29;54.55
66962;HTU21D;53897;51.126;5.868;2022-08-26T05:38:09;27.29;54.59
66962;HTU21D;53897;51.126;5.868;2022-08-26T05:40:40;27.28;54.64
66962;HTU21D;53897;51.126;5.868;2022-08-26T05:43:07;27.27;54.64
66962;HTU21D;53897;51.126;5.868;2022-08-26T05:45:38;27.27;54.62
66962;HTU21D;53897;51.126;5.868;2022-08-26T05:48:05;27.27;54.72
66962;HTU21D;53897;51.126;5.868;2022-08-26T05:50:41;27.26;54.80
66962;HTU21D;53897;51.126;5.868;2022-08-26T05:53:09;27.25;54.77
66962;HTU21D;53897;51.126;5.868;2022-08-26T05:55:42;27.24;54.76
66962;HTU21D;53897;51.126;5.868;2022-08-26T05:58:08;27.23;54.84
66962;HTU21D;53897;51.126;5.868;2022-08-26T06:00:34;27.23;54.77
66962;HTU21D;53897;51.126;5.868;2022-08-26T06:03:00;27.23;54.77
66962;HTU21D;53897;51.126;5.868;2022-08-26T06:05:25;27.23;54.68
66962;HTU21D;53897;51.126;5.868;2022-08-26T06:07:51;27.21;54.72
66962;HTU21D;53897;51.126;5.868;2022-08-26T06:10:51;27.22;54.70
66962;HTU21D;53897;51.126;5.868;2022-08-26T06:13:20;27.22;54.74
66962;HTU21D;53897;51.126;5.868;2022-08-26T06:15:48;27.22;54.78
66962;HTU21D;53897;51.126;5.868;2022-08-26T06:18:18;27.22;54.78
66962;HTU21D;53897;51.126;5.868;2022-08-26T06:20:46;27.21;54.78
66962;HTU21D;53897;51.126;5.868;2022-08-26T06:23:14;27.21;54.77
66962;HTU21D;53897;51.126;5.868;2022-08-26T06:25:58;27.20;54.78
66962;HTU21D;53897;51.126;5.868;2022-08-26T06:28:25;27.20;54.84
66962;HTU21D;53897;51.126;5.868;2022-08-26T06:30:52;27.20;54.81
66962;HTU21D;53897;51.126;5.868;2022-08-26T06:33:19;27.21;54.80
66962;HTU21D;53897;51.126;5.868;2022-08-26T06:35:46;27.20;54.75
66962;HTU21D;53897;51.126;5.868;2022-08-26T06:38:13;27.19;54.75
66962;HTU21D;53897;51.126;5.868;2022-08-26T06:40:44;27.17;54.75
66962;HTU21D;53897;51.126;5.868;2022-08-26T06:43:17;27.17;54.75
66962;HTU21D;53897;51.126;5.868;2022-08-26T06:45:44;27.15;54.73
66962;HTU21D;53897;51.126;5.868;2022-08-26T06:48:12;27.13;54.75
66962;HTU21D;53897;51.126;5.868;2022-08-26T06:50:39;27.14;54.75
66962;HTU21D;53897;51.126;5.868;2022-08-26T06:53:05;27.15;54.71
66962;HTU21D;53897;51.126;5.868;2022-08-26T06:55:38;27.15;54.68
66962;HTU21D;53897;51.126;5.868;2022-08-26T06:58:03;27.19;54.62
66962;HTU21D;53897;51.126;5.868;2022-08-26T07:00:31;27.19;54.55
66962;HTU21D;53897;51.126;5.868;2022-08-26T07:02:57;27.20;54.52
66962;HTU21D;53897;51.126;5.868;2022-08-26T07:05:23;27.22;54.53
66962;HTU21D;53897;51.126;5.868;2022-08-26T07:07:50;27.22;54.68
66962;HTU21D;53897;51.126;5.868;2022-08-26T07:10:17;27.22;54.67
66962;HTU21D;53897;51.126;5.868;2022-08-26T07:12:43;27.24;54.60
66962;HTU21D;53897;51.126;5.868;2022-08-26T07:15:10;27.22;54.52
66962;HTU21D;53897;51.126;5.868;2022-08-26T07:17:36;27.23;54.39
66962;HTU21D;53897;51.126;5.868;2022-08-26T07:20:03;27.23;54.27
66962;HTU21D;53897;51.126;5.868;2022-08-26T07:22:31;27.22;54.13
66962;HTU21D;53897;51.126;5.868;2022-08-26T07:24:57;27.22;54.12
66962;HTU21D;53897;51.126;5.868;2022-08-26T07:27:23;27.23;54.14
66962;HTU21D;53897;51.126;5.868;2022-08-26T07:29:48;27.24;54.10
66962;HTU21D;53897;51.126;5.868;2022-08-26T07:32:15;27.24;54.07
66962;HTU21D;53897;51.126;5.868;2022-08-26T07:34:41;27.23;54.13
66962;HTU21D;53897;51.126;5.868;2022-08-26T07:37:07;27.24;54.12
66962;HTU21D;53897;51.126;5.868;2022-08-26T07:39:33;27.25;54.07
66962;HTU21D;53897;51.126;5.868;2022-08-26T07:42:00;27.25;54.04
66962;HTU21D;53897;51.126;5.868;2022-08-26T07:44:26;27.28;53.91
66962;HTU21D;53897;51.126;5.868;2022-08-26T07:46:52;27.27;53.94
66962;HTU21D;53897;51.126;5.868;2022-08-26T07:49:19;27.27;53.94
66962;HTU21D;53897;51.126;5.868;2022-08-26T07:51:44;27.28;53.89
66962;HTU21D;53897;51.126;5.868;2022-08-26T07:54:10;27.28;53.98
66962;HTU21D;53897;51.126;5.868;2022-08-26T07:56:36;27.29;54.00
66962;HTU21D;53897;51.126;5.868;2022-08-26T07:59:02;27.28;53.96
66962;HTU21D;53897;51.126;5.868;2022-08-26T08:01:27;27.30;53.97
66962;HTU21D;53897;51.126;5.868;2022-08-26T08:03:56;27.31;53.97
66962;HTU21D;53897;51.126;5.868;2022-08-26T08:06:25;27.31;53.97
66962;HTU21D;53897;51.126;5.868;2022-08-26T08:08:51;27.31;53.98
66962;HTU21D;53897;51.126;5.868;2022-08-26T08:11:18;27.34;53.99
66962;HTU21D;53897;51.126;5.868;2022-08-26T08:13:46;27.34;53.91
66962;HTU21D;53897;51.126;5.868;2022-08-26T08:16:13;27.36;53.84
66962;HTU21D;53897;51.126;5.868;2022-08-26T08:18:39;27.36;53.75
66962;HTU21D;53897;51.126;5.868;2022-08-26T08:21:05;27.37;53.67
66962;HTU21D;53897;51.126;5.868;2022-08-26T08:23:31;27.38;53.59
66962;HTU21D;53897;51.126;5.868;2022-08-26T08:26:06;27.39;53.55
66962;HTU21D;53897;51.126;5.868;2022-08-26T08:28:32;27.40;53.50
66962;HTU21D;53897;51.126;5.868;2022-08-26T08:30:58;27.40;53.44
66962;HTU21D;53897;51.126;5.868;2022-08-26T08:33:24;27.41;53.41
66962;HTU21D;53897;51.126;5.868;2022-08-26T08:35:51;27.42;53.37
66962;HTU21D;53897;51.126;5.868;2022-08-26T08:38:17;27.42;53.34
66962;HTU21D;53897;51.126;5.868;2022-08-26T08:40:44;27.43;53.31
66962;HTU21D;53897;51.126;5.868;2022-08-26T08:43:39;27.43;53.26
66962;HTU21D;53897;51.126;5.868;2022-08-26T08:46:10;27.45;53.23
66962;HTU21D;53897;51.126;5.868;2022-08-26T08:48:42;27.45;53.21
66962;HTU21D;53897;51.126;5.868;2022-08-26T08:51:20;27.45;53.17
66962;HTU21D;53897;51.126;5.868;2022-08-26T08:53:53;27.46;53.15
66962;HTU21D;53897;51.126;5.868;2022-08-26T08:56:32;27.46;53.14
66962;HTU21D;53897;51.126;5.868;2022-08-26T08:59:13;27.46;53.11
66962;HTU21D;53897;51.126;5.868;2022-08-26T09:02:08;27.49;53.07
66962;HTU21D;53897;51.126;5.868;2022-08-26T09:07:35;27.49;53.04
66962;HTU21D;53897;51.126;5.868;2022-08-26T09:12:42;27.50;53.01
66962;HTU21D;53897;51.126;5.868;2022-08-26T09:15:17;27.51;52.98
66962;HTU21D;53897;51.126;5.868;2022-08-26T09:23:20;27.53;52.95
66962;HTU21D;53897;51.126;5.868;2022-08-26T09:26:00;27.53;52.94
66962;HTU21D;53897;51.126;5.868;2022-08-26T09:28:30;27.53;52.91
66962;HTU21D;53897;51.126;5.868;2022-08-26T09:31:12;27.54;52.89
66962;HTU21D;53897;51.126;5.868;2022-08-26T09:33:40;27.54;52.88
66962;HTU21D;53897;51.126;5.868;2022-08-26T09:36:22;27.55;52.85
66962;HTU21D;53897;51.126;5.868;2022-08-26T09:38:58;27.54;52.83
66962;HTU21D;53897;51.126;5.868;2022-08-26T09:41:27;27.55;52.82
66962;HTU21D;53897;51.126;5.868;2022-08-26T09:44:17;27.56;52.79
66962;HTU21D;53897;51.126;5.868;2022-08-26T09:47:07;27.56;52.75
66962;HTU21D;53897;51.126;5.868;2022-08-26T09:49:38;27.57;52.74
66962;HTU21D;53897;51.126;5.868;2022-08-26T09:52:12;27.57;52.75
66962;HTU21D;53897;51.126;5.868;2022-08-26T09:54:41;27.56;52.74
66962;HTU21D;53897;51.126;5.868;2022-08-26T09:57:29;27.58;52.71
66962;HTU21D;53897;51.126;5.868;2022-08-26T09:59:56;27.57;52.71
66962;HTU21D;53897;51.126;5.868;2022-08-26T10:02:34;27.58;52.70
66962;HTU21D;53897;51.126;5.868;2022-08-26T10:05:05;27.57;52.69
66962;HTU21D;53897;51.126;5.868;2022-08-26T10:07:47;27.58;52.69
66962;HTU21D;53897;51.126;5.868;2022-08-26T10:10:36;27.59;52.65
66962;HTU21D;53897;51.126;5.868;2022-08-26T10:15:51;27.59;52.62
66962;HTU21D;53897;51.126;5.868;2022-08-26T10:18:32;27.60;52.61
66962;HTU21D;53897;51.126;5.868;2022-08-26T10:21:06;27.60;52.60
66962;HTU21D;53897;51.126;5.868;2022-08-26T10:23:43;27.60;52.59
66962;HTU21D;53897;51.126;5.868;2022-08-26T10:29:41;27.59;52.56
66962;HTU21D;53897;51.126;5.868;2022-08-26T10:32:03;27.61;52.54
66962;HTU21D;53897;51.126;5.868;2022-08-26T10:34:33;27.63;52.54
66962;HTU21D;53897;51.126;5.868;2022-08-26T10:37:06;27.63;52.52
66962;HTU21D;53897;51.126;5.868;2022-08-26T10:39:54;27.61;52.50
66962;HTU21D;53897;51.126;5.868;2022-08-26T10:42:49;27.63;52.49
66962;HTU21D;53897;51.126;5.868;2022-08-26T10:45:20;27.64;52.48
66962;HTU21D;53897;51.126;5.868;2022-08-26T10:50:44;27.63;52.45
66962;HTU21D;53897;51.126;5.868;2022-08-26T10:55:58;27.64;52.42
66962;HTU21D;53897;51.126;5.868;2022-08-26T11:01:18;27.64;52.39
66962;HTU21D;53897;51.126;5.868;2022-08-26T11:04:26;27.65;52.36
66962;HTU21D;53897;51.126;5.868;2022-08-26T11:12:53;27.66;52.33
66962;HTU21D;53897;51.126;5.868;2022-08-26T11:22:54;27.67;52.29
66962;HTU21D;53897;51.126;5.868;2022-08-26T11:25:22;27.67;52.28
66962;HTU21D;53897;51.126;5.868;2022-08-26T11:40:26;27.69;52.22
66962;HTU21D;53897;51.126;5.868;2022-08-26T11:43:05;27.68;52.18
66962;HTU21D;53897;51.126;5.868;2022-08-26T11:45:37;27.71;52.13
66962;HTU21D;53897;51.126;5.868;2022-08-26T11:48:21;27.70;52.14
66962;HTU21D;53897;51.126;5.868;2022-08-26T11:50:59;27.69;52.14
66962;HTU21D;53897;51.126;5.868;2022-08-26T11:53:26;27.70;52.14
66962;HTU21D;53897;51.126;5.868;2022-08-26T11:55:55;27.70;52.14
66962;HTU21D;53897;51.126;5.868;2022-08-26T11:58:23;27.69;52.14
66962;HTU21D;53897;51.126;5.868;2022-08-26T12:00:55;27.69;52.15
66962;HTU21D;53897;51.126;5.868;2022-08-26T12:03:35;27.70;52.14
66962;HTU21D;53897;51.126;5.868;2022-08-26T12:06:10;27.71;52.14
66962;HTU21D;53897;51.126;5.868;2022-08-26T12:08:40;27.70;52.12
66962;HTU21D;53897;51.126;5.868;2022-08-26T12:11:12;27.70;52.11
66962;HTU21D;53897;51.126;5.868;2022-08-26T12:14:15;27.71;52.09
66962;HTU21D;53897;51.126;5.868;2022-08-26T12:16:38;27.72;52.08
66962;HTU21D;53897;51.126;5.868;2022-08-26T12:19:31;27.71;52.05
66962;HTU21D;53897;51.126;5.868;2022-08-26T12:24:30;27.71;52.04
66962;HTU21D;53897;51.126;5.868;2022-08-26T12:27:13;27.71;52.03
66962;HTU21D;53897;51.126;5.868;2022-08-26T12:29:40;27.70;52.02
66962;HTU21D;53897;51.126;5.868;2022-08-26T12:32:16;27.71;52.01
66962;HTU21D;53897;51.126;5.868;2022-08-26T12:34:45;27.70;52.00
66962;HTU21D;53897;51.126;5.868;2022-08-26T12:37:13;27.70;52.00
66962;HTU21D;53897;51.126;5.868;2022-08-26T12:39:42;27.72;52.00
66962;HTU21D;53897;51.126;5.868;2022-08-26T12:47:29;27.72;51.94
66962;HTU21D;53897;51.126;5.868;2022-08-26T12:50:18;27.72;51.94
66962;HTU21D;53897;51.126;5.868;2022-08-26T13:00:45;27.72;51.89
66962;HTU21D;53897;51.126;5.868;2022-08-26T13:09:09;27.71;51.86
66962;HTU21D;53897;51.126;5.868;2022-08-26T13:14:14;27.72;51.85
66962;HTU21D;53897;51.126;5.868;2022-08-26T13:16:42;27.72;51.85
66962;HTU21D;53897;51.126;5.868;2022-08-26T13:19:11;27.73;51.82
66962;HTU21D;53897;51.126;5.868;2022-08-26T13:21:47;27.71;51.84
66962;HTU21D;53897;51.126;5.868;2022-08-26T13:24:27;27.72;51.82
66962;HTU21D;53897;51.126;5.868;2022-08-26T13:26:55;27.72;51.82
66962;HTU21D;53897;51.126;5.868;2022-08-26T13:29:21;27.72;51.83
66962;HTU21D;53897;51.126;5.868;2022-08-26T13:31:47;27.71;51.81
66962;HTU21D;53897;51.126;5.868;2022-08-26T13:34:17;27.73;51.80
66962;HTU21D;53897;51.126;5.868;2022-08-26T13:36:47;27.72;51.81
66962;HTU21D;53897;51.126;5.868;2022-08-26T13:39:14;27.72;51.78
66962;HTU21D;53897;51.126;5.868;2022-08-26T13:41:40;27.73;51.78
66962;HTU21D;53897;51.126;5.868;2022-08-26T13:44:07;27.72;51.78
66962;HTU21D;53897;51.126;5.868;2022-08-26T13:46:34;27.73;51.73
66962;HTU21D;53897;51.126;5.868;2022-08-26T13:49:00;27.73;51.73
66962;HTU21D;53897;51.126;5.868;2022-08-26T13:51:27;27.73;51.75
66962;HTU21D;53897;51.126;5.868;2022-08-26T13:53:53;27.72;51.75
66962;HTU21D;53897;51.126;5.868;2022-08-26T13:56:20;27.72;51.75
66962;HTU21D;53897;51.126;5.868;2022-08-26T13:58:46;27.74;51.73
66962;HTU21D;53897;51.126;5.868;2022-08-26T14:01:13;27.72;51.75
66962;HTU21D;53897;51.126;5.868;2022-08-26T14:03:40;27.73;51.74
66962;HTU21D;53897;51.126;5.868;2022-08-26T14:06:06;27.72;51.72
66962;HTU21D;53897;51.126;5.868;2022-08-26T14:08:31;27.72;51.73
66962;HTU21D;53897;51.126;5.868;2022-08-26T14:10:58;27.72;51.71
66962;HTU21D;53897;51.126;5.868;2022-08-26T14:13:23;27.72;51.71
66962;HTU21D;53897;51.126;5.868;2022-08-26T14:15:51;27.72;51.71
66962;HTU21D;53897;51.126;5.868;2022-08-26T14:18:21;27.72;51.71
66962;HTU21D;53897;51.126;5.868;2022-08-26T14:20:51;27.72;51.70
66962;HTU21D;53897;51.126;5.868;2022-08-26T14:23:17;27.72;51.69
66962;HTU21D;53897;51.126;5.868;2022-08-26T14:25:44;27.72;51.69
66962;HTU21D;53897;51.126;5.868;2022-08-26T14:28:09;27.72;51.68
66962;HTU21D;53897;51.126;5.868;2022-08-26T14:30:39;27.72;51.69
66962;HTU21D;53897;51.126;5.868;2022-08-26T14:33:05;27.72;51.68
66962;HTU21D;53897;51.126;5.868;2022-08-26T14:35:35;27.72;51.67
66962;HTU21D;53897;51.126;5.868;2022-08-26T14:38:01;27.72;51.67
66962;HTU21D;53897;51.126;5.868;2022-08-26T14:40:29;27.72;51.67
66962;HTU21D;53897;51.126;5.868;2022-08-26T14:42:56;27.72;51.66
66962;HTU21D;53897;51.126;5.868;2022-08-26T14:45:24;27.71;51.65
66962;HTU21D;53897;51.126;5.868;2022-08-26T14:47:51;27.72;51.66
66962;HTU21D;53897;51.126;5.868;2022-08-26T14:50:21;27.72;51.66
66962;HTU21D;53897;51.126;5.868;2022-08-26T14:52:48;27.72;51.66
66962;HTU21D;53897;51.126;5.868;2022-08-26T14:55:36;27.72;51.65
66962;HTU21D;53897;51.126;5.868;2022-08-26T14:58:03;27.71;51.66
66962;HTU21D;53897;51.126;5.868;2022-08-26T15:00:30;27.72;51.66
66962;HTU21D;53897;51.126;5.868;2022-08-26T15:02:56;27.73;51.66
66962;HTU21D;53897;51.126;5.868;2022-08-26T15:05:23;27.73;51.66
66962;HTU21D;53897;51.126;5.868;2022-08-26T15:07:49;27.73;51.66
66962;HTU21D;53897;51.126;5.868;2022-08-26T15:10:16;27.74;51.65
66962;HTU21D;53897;51.126;5.868;2022-08-26T15:12:43;27.74;51.64
66962;HTU21D;53897;51.126;5.868;2022-08-26T15:15:11;27.74;51.64
66962;HTU21D;53897;51.126;5.868;2022-08-26T15:17:37;27.74;51.65
66962;HTU21D;53897;51.126;5.868;2022-08-26T15:20:04;27.75;51.66
66962;HTU21D;53897;51.126;5.868;2022-08-26T15:22:32;27.75;51.65
66962;HTU21D;53897;51.126;5.868;2022-08-26T15:24:58;27.74;51.66
66962;HTU21D;53897;51.126;5.868;2022-08-26T15:27:24;27.75;51.65
66962;HTU21D;53897;51.126;5.868;2022-08-26T15:29:50;27.76;51.65
66962;HTU21D;53897;51.126;5.868;2022-08-26T15:32:16;27.76;51.65
66962;HTU21D;53897;51.126;5.868;2022-08-26T15:34:42;27.75;51.65
66962;HTU21D;53897;51.126;5.868;2022-08-26T15:37:08;27.75;51.66
66962;HTU21D;53897;51.126;5.868;2022-08-26T15:39:34;27.78;51.66
66962;HTU21D;53897;51.126;5.868;2022-08-26T15:42:00;27.76;51.66
66962;HTU21D;53897;51.126;5.868;2022-08-26T15:44:26;27.76;51.65
66962;HTU21D;53897;51.126;5.868;2022-08-26T15:46:52;27.79;51.62
66962;HTU21D;53897;51.126;5.868;2022-08-26T15:49:21;27.78;51.61
66962;HTU21D;53897;51.126;5.868;2022-08-26T15:51:48;27.78;51.62
66962;HTU21D;53897;51.126;5.868;2022-08-26T15:54:20;27.78;51.62
66962;HTU21D;53897;51.126;5.868;2022-08-26T15:56:47;27.78;51.61
66962;HTU21D;53897;51.126;5.868;2022-08-26T15:59:15;27.78;51.62
66962;HTU21D;53897;51.126;5.868;2022-08-26T16:01:41;27.78;51.61
66962;HTU21D;53897;51.126;5.868;2022-08-26T16:04:07;27.78;51.61
66962;HTU21D;53897;51.126;5.868;2022-08-26T16:06:36;27.79;51.60
66962;HTU21D;53897;51.126;5.868;2022-08-26T16:09:03;27.76;51.59
66962;HTU21D;53897;51.126;5.868;2022-08-26T16:11:28;27.79;51.61
66962;HTU21D;53897;51.126;5.868;2022-08-26T16:13:56;27.78;51.59
66962;HTU21D;53897;51.126;5.868;2022-08-26T16:16:21;27.79;51.60
66962;HTU21D;53897;51.126;5.868;2022-08-26T16:18:47;27.78;51.59
66962;HTU21D;53897;51.126;5.868;2022-08-26T16:21:20;27.78;51.59
66962;HTU21D;53897;51.126;5.868;2022-08-26T16:23:46;27.76;51.58
66962;HTU21D;53897;51.126;5.868;2022-08-26T16:26:15;27.78;51.58
66962;HTU21D;53897;51.126;5.868;2022-08-26T16:28:42;27.78;51.58
66962;HTU21D;53897;51.126;5.868;2022-08-26T16:31:07;27.78;51.58
66962;HTU21D;53897;51.126;5.868;2022-08-26T16:33:35;27.76;51.56
66962;HTU21D;53897;51.126;5.868;2022-08-26T16:36:04;27.76;51.54
66962;HTU21D;53897;51.126;5.868;2022-08-26T16:38:29;27.78;51.53
66962;HTU21D;53897;51.126;5.868;2022-08-26T16:40:55;27.78;51.53
66962;HTU21D;53897;51.126;5.868;2022-08-26T16:43:21;27.78;51.51
66962;HTU21D;53897;51.126;5.868;2022-08-26T16:45:47;27.76;51.52
66962;HTU21D;53897;51.126;5.868;2022-08-26T16:48:12;27.76;51.50
66962;HTU21D;53897;51.126;5.868;2022-08-26T16:50:38;27.78;51.50